createdAt,value
2023-03-21T00:01:29.726Z,101113.44
2023-03-21T00:04:44.602Z,101104.66
2023-03-21T00:07:54.498Z,101107.72
2023-03-21T00:11:02.676Z,101117.34
2023-03-21T00:14:06.054Z,101114.75
2023-03-21T00:17:11.356Z,101106.34
2023-03-21T00:20:15.441Z,101101.47
2023-03-21T00:23:17.763Z,101104.34
2023-03-21T00:26:24.702Z,101100.09
2023-03-21T00:29:28.070Z,101085.94
2023-03-21T00:32:30.601Z,101090.31
2023-03-21T00:35:57.993Z,101089.16
2023-03-21T00:38:56.219Z,101084.25
2023-03-21T00:41:58.420Z,101091.31
2023-03-21T00:45:02.086Z,101094.69
2023-03-21T00:48:06.381Z,101097.06
2023-03-21T00:51:15.859Z,101096.22
2023-03-21T00:54:18.364Z,101087.63
2023-03-21T00:57:29.285Z,101102.78
2023-03-21T01:00:37.477Z,101091.47
2023-03-21T01:03:43.022Z,101081.00
2023-03-21T01:06:48.186Z,101086.03
2023-03-21T01:09:51.322Z,101088.94
2023-03-21T01:12:54.964Z,101085.06
2023-03-21T01:15:57.879Z,101085.19
2023-03-21T01:19:01.142Z,101073.25
2023-03-21T01:22:03.781Z,101075.44
2023-03-21T01:25:21.564Z,101073.78
2023-03-21T01:28:29.691Z,101080.84
2023-03-21T01:31:32.232Z,101073.94
2023-03-21T01:34:34.517Z,101068.03
2023-03-21T01:37:36.907Z,101083.38
2023-03-21T01:40:40.193Z,101079.50
2023-03-21T01:43:52.357Z,101080.66
2023-03-21T01:47:09.885Z,101067.19
2023-03-21T01:50:38.901Z,101068.72
2023-03-21T01:53:54.045Z,101060.22
2023-03-21T01:56:58.647Z,101050.44
2023-03-21T02:00:13.316Z,101063.59
2023-03-21T02:03:35.071Z,101037.44
2023-03-21T02:07:04.503Z,101048.03
2023-03-21T02:10:15.271Z,101055.97
2023-03-21T02:13:23.395Z,101058.53
2023-03-21T02:16:42.547Z,101058.91
2023-03-21T02:20:18.565Z,101068.66
2023-03-21T02:23:55.702Z,101058.00
2023-03-21T02:27:22.064Z,101064.75
2023-03-21T02:30:50.903Z,101067.13
2023-03-21T02:33:57.685Z,101062.59
2023-03-21T02:37:31.858Z,101067.47
2023-03-21T02:41:03.440Z,101065.44
2023-03-21T02:44:08.001Z,101057.00
2023-03-21T02:47:27.017Z,101053.13
2023-03-21T02:50:37.763Z,101054.00
2023-03-21T02:53:44.203Z,101037.22
2023-03-21T02:56:49.675Z,101043.00
2023-03-21T02:59:58.428Z,101045.50
2023-03-21T03:03:18.217Z,101025.31
2023-03-21T03:06:34.071Z,101028.69
2023-03-21T03:09:38.711Z,101039.16
2023-03-21T03:12:53.543Z,101036.78
2023-03-21T03:16:02.499Z,101027.50
2023-03-21T03:19:11.034Z,101025.84
2023-03-21T03:22:26.036Z,101014.34
2023-03-21T03:25:42.470Z,101037.63
2023-03-21T03:28:53.297Z,101026.47
2023-03-21T03:32:01.891Z,101017.88
2023-03-21T03:35:08.216Z,101010.28
2023-03-21T03:38:12.133Z,101016.03
2023-03-21T03:41:26.149Z,101029.19
2023-03-21T03:44:34.417Z,101020.59
2023-03-21T03:47:57.600Z,101037.13
2023-03-21T03:51:13.696Z,101020.69
2023-03-21T03:54:45.410Z,101006.56
2023-03-21T03:57:48.369Z,101017.88
2023-03-21T04:00:51.874Z,101018.38
2023-03-21T04:04:06.976Z,101002.56
2023-03-21T04:07:15.164Z,101009.28
2023-03-21T04:10:18.395Z,101015.19
2023-03-21T04:13:21.024Z,101011.63
2023-03-21T04:16:37.416Z,100999.53
2023-03-21T04:19:39.586Z,101009.50
2023-03-21T04:22:43.294Z,101029.59
2023-03-21T04:25:55.995Z,101026.19
2023-03-21T04:29:05.730Z,101030.59
2023-03-21T04:32:41.038Z,101023.00
2023-03-21T04:35:48.188Z,101030.59
2023-03-21T04:38:50.846Z,101035.28
2023-03-21T04:41:53.364Z,101031.44
2023-03-21T04:44:58.150Z,101032.59
2023-03-21T04:48:00.559Z,101026.84
2023-03-21T04:51:02.835Z,101021.31
2023-03-21T04:54:06.057Z,101038.53
2023-03-21T04:57:10.633Z,101035.50
2023-03-21T05:00:16.334Z,101031.72
2023-03-21T05:03:20.664Z,101030.75
2023-03-21T05:06:23.735Z,101020.50
2023-03-21T05:09:26.157Z,101027.41
2023-03-21T05:12:28.475Z,101028.56
2023-03-21T05:15:37.500Z,101016.25
2023-03-21T05:18:40.350Z,101038.34
2023-03-21T05:21:50.041Z,101022.13
2023-03-21T05:24:56.269Z,101019.28
2023-03-21T05:28:31.767Z,101021.81
2023-03-21T05:31:36.619Z,101036.84
2023-03-21T05:34:43.992Z,101025.78
2023-03-21T05:37:46.137Z,101028.81
2023-03-21T05:40:50.355Z,101024.88
2023-03-21T05:43:53.214Z,101032.28
2023-03-21T05:46:55.344Z,101026.50
2023-03-21T05:50:04.194Z,101033.78
2023-03-21T05:53:07.526Z,101029.81
2023-03-21T05:56:10.305Z,101028.19
2023-03-21T05:59:21.176Z,101034.41
2023-03-21T06:02:26.613Z,101020.13
2023-03-21T06:05:30.497Z,101027.06
2023-03-21T06:08:33.422Z,101032.56
2023-03-21T06:11:36.918Z,101035.00
2023-03-21T06:15:01.311Z,101036.25
2023-03-21T06:18:13.417Z,101022.31
2023-03-21T06:21:26.739Z,101032.69
2023-03-21T06:24:28.930Z,101037.75
2023-03-21T06:27:31.407Z,101030.31
2023-03-21T06:30:34.063Z,101031.69
2023-03-21T06:33:56.997Z,101026.50
2023-03-21T06:36:59.036Z,101035.44
2023-03-21T06:40:07.967Z,101034.84
2023-03-21T06:43:10.445Z,101028.19
2023-03-21T06:46:12.411Z,101032.34
2023-03-21T06:49:14.618Z,101024.03
2023-03-21T06:52:17.075Z,101036.13
2023-03-21T06:55:20.048Z,101041.06
2023-03-21T06:58:22.485Z,101042.09
2023-03-21T07:01:27.738Z,101039.19
2023-03-21T07:04:37.550Z,101038.28
2023-03-21T07:07:41.241Z,101032.84
2023-03-21T07:10:45.439Z,101020.78
2023-03-21T07:13:49.337Z,101027.25
2023-03-21T07:16:51.592Z,101034.25
2023-03-21T07:19:53.680Z,101020.63
2023-03-21T07:22:56.416Z,101022.03
2023-03-21T07:26:02.130Z,101031.25
2023-03-21T07:29:04.500Z,101023.13
2023-03-21T07:32:06.914Z,101020.44
2023-03-21T07:35:11.640Z,101024.06
2023-03-21T07:38:17.525Z,101024.38
2023-03-21T07:41:19.466Z,101024.78
2023-03-21T07:44:24.500Z,101023.75
2023-03-21T07:47:37.130Z,101021.34
2023-03-21T07:50:40.106Z,101017.91
2023-03-21T07:53:43.918Z,101022.75
2023-03-21T07:56:46.108Z,101030.03
2023-03-21T07:59:48.116Z,101028.16
2023-03-21T08:02:58.989Z,101022.28
2023-03-21T08:06:03.552Z,101022.28
2023-03-21T08:09:05.684Z,101020.03
2023-03-21T08:12:08.877Z,101014.13
2023-03-21T08:15:11.691Z,101020.47
2023-03-21T08:18:14.820Z,101015.50
2023-03-21T08:21:17.072Z,101023.66
2023-03-21T08:24:19.212Z,101026.66
2023-03-21T08:27:21.101Z,101019.16
2023-03-21T08:30:24.251Z,101022.16
2023-03-21T08:33:26.302Z,101016.06
2023-03-21T08:36:28.265Z,100999.13
2023-03-21T08:39:30.371Z,101016.22
2023-03-21T08:42:34.033Z,101012.69
2023-03-21T08:45:36.512Z,101023.66
2023-03-21T08:48:38.987Z,101016.63
2023-03-21T08:51:41.367Z,101005.56
2023-03-21T08:54:45.528Z,101011.78
2023-03-21T08:57:47.513Z,101014.03
2023-03-21T09:00:49.448Z,101007.84
2023-03-21T09:03:51.785Z,101013.91
2023-03-21T09:06:56.421Z,101002.44
2023-03-21T09:10:19.145Z,101001.97
2023-03-21T09:13:21.083Z,101006.19
2023-03-21T09:16:23.113Z,101004.81
2023-03-21T09:19:25.977Z,101003.28
2023-03-21T09:22:28.218Z,100999.22
2023-03-21T09:25:31.693Z,101004.31
2023-03-21T09:28:35.220Z,100992.22
2023-03-21T09:31:37.463Z,100999.84
2023-03-21T09:34:41.450Z,100996.78
2023-03-21T09:37:43.804Z,100994.72
2023-03-21T09:40:55.987Z,100992.69
2023-03-21T09:44:03.700Z,100995.09
2023-03-21T09:47:06.466Z,100999.00
2023-03-21T09:50:17.292Z,100999.59
2023-03-21T09:53:31.093Z,100994.63
2023-03-21T09:56:34.790Z,100997.81
2023-03-21T09:59:42.181Z,100996.50
2023-03-21T10:02:48.055Z,100993.38
2023-03-21T10:05:52.678Z,100998.72
2023-03-21T10:08:57.190Z,100992.81
2023-03-21T10:12:02.378Z,100984.66
2023-03-21T10:15:06.214Z,100988.00
2023-03-21T10:18:13.480Z,100985.22
2023-03-21T10:21:43.116Z,100982.72
2023-03-21T10:24:41.990Z,100979.16
2023-03-21T10:27:44.205Z,100973.34
2023-03-21T10:30:48.132Z,100977.44
2023-03-21T10:33:50.961Z,100974.56
2023-03-21T10:36:56.039Z,100972.88
2023-03-21T10:39:58.114Z,100968.88
2023-03-21T10:43:30.113Z,100971.38
2023-03-21T10:46:36.091Z,100964.88
2023-03-21T10:50:06.535Z,100961.53
2023-03-21T10:53:01.200Z,100972.00
2023-03-21T10:56:06.785Z,100970.31
2023-03-21T10:59:10.450Z,100970.13
2023-03-21T11:02:21.025Z,100964.09
2023-03-21T11:05:26.180Z,100957.66
2023-03-21T11:08:28.578Z,100954.75
2023-03-21T11:11:35.402Z,100949.56
2023-03-21T11:14:38.928Z,100948.31
2023-03-21T11:17:41.900Z,100942.03
2023-03-21T11:20:54.402Z,100937.84
2023-03-21T11:23:57.368Z,100933.84
2023-03-21T11:26:59.685Z,100940.28
2023-03-21T11:30:02.926Z,100934.38
2023-03-21T11:33:07.036Z,100934.03
2023-03-21T11:36:21.025Z,100930.75
2023-03-21T11:39:39.934Z,100925.78
2023-03-21T11:42:45.905Z,100915.59
2023-03-21T11:46:08.490Z,100915.22
2023-03-21T11:49:11.044Z,100915.00
2023-03-21T11:52:23.717Z,100915.41
2023-03-21T11:55:28.730Z,100900.16
2023-03-21T11:58:33.711Z,100910.13
2023-03-21T12:01:54.501Z,100909.09
2023-03-21T12:05:02.497Z,100903.69
2023-03-21T12:08:07.488Z,100893.69
2023-03-21T12:11:18.868Z,100901.88
2023-03-21T12:14:21.122Z,100898.31
2023-03-21T12:17:26.068Z,100897.69
2023-03-21T12:20:39.966Z,100891.84
2023-03-21T12:23:41.874Z,100883.91
2023-03-21T12:27:02.293Z,100873.03
2023-03-21T12:30:13.821Z,100880.75
2023-03-21T12:33:17.113Z,100880.94
2023-03-21T12:36:25.064Z,100879.28
2023-03-21T12:39:35.621Z,100878.47
2023-03-21T12:42:49.676Z,100870.75
2023-03-21T12:45:54.089Z,100861.34
2023-03-21T12:49:02.705Z,100859.47
2023-03-21T12:52:08.209Z,100858.84
2023-03-21T12:55:37.005Z,100851.72
2023-03-21T12:59:02.205Z,100844.81
2023-03-21T13:02:14.907Z,100852.94
2023-03-21T13:05:17.407Z,100843.31
2023-03-21T13:08:38.705Z,100852.31
2023-03-21T13:11:40.609Z,100836.84
2023-03-21T13:14:56.913Z,100840.84
2023-03-21T13:18:17.391Z,100839.38
2023-03-21T13:21:32.461Z,100837.91
2023-03-21T13:24:49.030Z,100828.50
2023-03-21T13:28:04.697Z,100816.81
2023-03-21T13:31:25.218Z,100820.34
2023-03-21T13:34:27.538Z,100817.81
2023-03-21T13:37:35.479Z,100810.09
2023-03-21T13:40:59.005Z,100814.44
2023-03-21T13:44:03.766Z,100808.38
2023-03-21T13:47:07.418Z,100804.63
2023-03-21T13:50:30.537Z,100805.66
2023-03-21T13:53:33.946Z,100799.59
2023-03-21T13:56:56.938Z,100803.13
2023-03-21T14:00:17.946Z,100799.34
2023-03-21T14:03:21.222Z,100795.03
2023-03-21T14:06:24.760Z,100791.13
2023-03-21T14:09:30.493Z,100787.66
2023-03-21T14:12:38.410Z,100783.91
2023-03-21T14:15:54.952Z,100781.69
2023-03-21T14:19:07.451Z,100779.78
2023-03-21T14:22:11.560Z,100778.41
2023-03-21T14:25:14.738Z,100783.53
2023-03-21T14:28:28.116Z,100775.66
2023-03-21T14:31:30.246Z,100773.88
2023-03-21T14:34:36.318Z,100782.69
2023-03-21T14:37:40.026Z,100780.88
2023-03-21T14:40:48.104Z,100774.53
2023-03-21T14:44:03.438Z,100780.75
2023-03-21T14:47:06.792Z,100779.13
2023-03-21T14:50:11.281Z,100774.50
2023-03-21T14:53:16.259Z,100774.97
2023-03-21T14:56:22.551Z,100792.53
2023-03-21T14:59:26.828Z,100776.63
2023-03-21T15:02:33.993Z,100776.06
2023-03-21T15:05:38.450Z,100773.13
2023-03-21T15:08:54.568Z,100772.53
2023-03-21T15:11:58.061Z,100780.31
2023-03-21T15:15:00.642Z,100774.03
2023-03-21T15:18:06.317Z,100781.97
2023-03-21T15:21:20.644Z,100781.75
2023-03-21T15:24:25.957Z,100782.13
2023-03-21T15:27:29.791Z,100779.88
2023-03-21T15:30:34.230Z,100784.69
2023-03-21T15:33:36.319Z,100786.25
2023-03-21T15:36:44.475Z,100785.34
2023-03-21T15:39:46.547Z,100789.50
2023-03-21T15:42:48.646Z,100795.59
2023-03-21T15:45:54.587Z,100799.81
2023-03-21T15:49:09.819Z,100798.97
2023-03-21T15:52:13.730Z,100808.50
2023-03-21T15:55:22.407Z,100800.22
2023-03-21T15:58:26.130Z,100806.31
2023-03-21T16:01:30.496Z,100814.25
2023-03-21T16:04:32.685Z,100811.63
2023-03-21T16:07:38.397Z,100809.72
2023-03-21T16:10:40.736Z,100809.91
2023-03-21T16:13:43.213Z,100819.72
2023-03-21T16:16:46.469Z,100818.88
2023-03-21T16:19:49.707Z,100815.31
2023-03-21T16:22:51.748Z,100817.31
2023-03-21T16:25:59.106Z,100825.56
2023-03-21T16:29:01.483Z,100812.06
2023-03-21T16:32:06.405Z,100829.44
2023-03-21T16:35:08.669Z,100824.06
2023-03-21T16:38:11.980Z,100831.28
2023-03-21T16:41:14.458Z,100830.50
2023-03-21T16:44:16.715Z,100838.53
2023-03-21T16:47:20.939Z,100841.50
2023-03-21T16:50:24.444Z,100844.25
2023-03-21T16:53:28.007Z,100841.97
2023-03-21T16:56:40.413Z,100837.59
2023-03-21T16:59:42.969Z,100843.44
2023-03-21T17:02:45.114Z,100850.72
2023-03-21T17:05:47.304Z,100853.25
2023-03-21T17:08:50.346Z,100853.66
2023-03-21T17:11:52.324Z,100866.19
2023-03-21T17:14:54.318Z,100859.06
2023-03-21T17:17:56.373Z,100869.09
2023-03-21T17:20:58.420Z,100867.41
2023-03-21T17:24:00.905Z,100863.00
2023-03-21T17:27:06.274Z,100863.03
2023-03-21T17:30:28.234Z,100860.91
2023-03-21T17:33:30.577Z,100865.09
2023-03-21T17:36:36.718Z,100876.59
2023-03-21T17:39:39.102Z,100885.13
2023-03-21T17:42:41.351Z,100893.63
2023-03-21T17:45:43.397Z,100896.75
2023-03-21T17:48:46.150Z,100898.13
2023-03-21T17:51:48.287Z,100891.19
2023-03-21T17:54:50.385Z,100911.38
2023-03-21T17:57:52.506Z,100911.56
2023-03-21T18:00:54.413Z,100911.09
2023-03-21T18:03:56.428Z,100919.03
2023-03-21T18:07:01.160Z,100918.19
2023-03-21T18:10:04.114Z,100929.06
2023-03-21T18:13:06.409Z,100935.06
2023-03-21T18:16:12.208Z,100927.91
2023-03-21T18:19:14.616Z,100932.50
2023-03-21T18:22:18.566Z,100940.03
2023-03-21T18:25:20.652Z,100947.41
2023-03-21T18:28:26.252Z,100942.63
2023-03-21T18:31:30.437Z,100945.81
2023-03-21T18:34:32.703Z,100948.94
2023-03-21T18:37:35.572Z,100946.56
2023-03-21T18:40:38.422Z,100952.41
2023-03-21T18:44:01.100Z,100953.88
2023-03-21T18:47:04.435Z,100961.38
2023-03-21T18:50:14.758Z,100958.66
2023-03-21T18:53:17.558Z,100957.63
2023-03-21T18:57:13.217Z,100956.59
2023-03-21T18:59:42.590Z,100960.16
2023-03-21T19:02:49.078Z,100960.78
2023-03-21T19:05:52.513Z,100956.88
2023-03-21T19:08:54.527Z,100954.78
2023-03-21T19:11:57.489Z,100956.06
2023-03-21T19:14:59.519Z,100965.31
2023-03-21T19:21:26.533Z,100980.59
2023-03-21T19:24:29.140Z,100970.09
2023-03-21T19:27:56.276Z,100971.75
2023-03-21T19:31:04.055Z,100970.09
2023-03-21T19:34:08.483Z,100968.34
2023-03-21T19:37:10.365Z,100969.00
2023-03-21T19:40:14.714Z,100979.09
2023-03-21T19:43:32.154Z,100994.97
2023-03-21T19:46:35.005Z,100979.53
2023-03-21T19:50:34.555Z,100980.25
2023-03-21T19:53:04.308Z,100989.84
2023-03-21T19:56:19.725Z,101003.28
2023-03-21T19:59:24.560Z,101008.91
2023-03-21T20:02:36.070Z,101012.88
2023-03-21T20:05:42.894Z,101015.78
2023-03-21T20:09:30.830Z,101012.34
2023-03-21T20:12:38.349Z,101017.63
2023-03-21T20:15:47.718Z,101015.81
2023-03-21T20:18:51.280Z,101014.22
2023-03-21T20:22:00.601Z,101012.38
2023-03-21T20:25:08.597Z,101006.13
2023-03-21T20:28:15.622Z,101010.75
2023-03-21T20:31:19.421Z,101010.00
2023-03-21T20:34:21.802Z,101003.50
2023-03-21T20:37:27.748Z,101012.31
2023-03-21T20:40:32.653Z,101015.03
2023-03-21T20:44:28.213Z,101010.19
2023-03-21T20:47:00.583Z,101008.91
2023-03-21T20:50:03.284Z,101005.94
2023-03-21T20:53:07.725Z,100998.81
2023-03-21T20:56:09.794Z,101007.13
2023-03-21T20:59:20.888Z,101007.53
2023-03-21T21:02:32.405Z,101012.50
2023-03-21T21:05:36.655Z,101007.84
2023-03-21T21:08:42.212Z,101011.78
2023-03-21T21:15:07.968Z,101015.91
2023-03-21T21:18:10.139Z,101022.03
2023-03-21T21:21:17.363Z,101029.69
2023-03-21T21:24:20.239Z,101022.59
2023-03-21T21:27:22.246Z,101034.69
2023-03-21T21:30:24.603Z,101031.34
2023-03-21T21:33:29.582Z,101035.88
2023-03-21T21:36:31.596Z,101040.41
2023-03-21T21:39:35.310Z,101043.06
2023-03-21T21:42:37.218Z,101046.59
2023-03-21T21:45:42.319Z,101048.03
2023-03-21T21:48:44.329Z,101047.13
2023-03-21T21:51:47.742Z,101050.84
2023-03-21T21:54:50.691Z,101043.69
2023-03-21T21:57:53.178Z,101048.88
2023-03-21T22:00:58.964Z,101058.06
2023-03-21T22:04:06.378Z,101055.72
2023-03-21T22:07:17.309Z,101048.34
2023-03-21T22:10:20.341Z,101048.47
2023-03-21T22:13:22.296Z,101048.94
2023-03-21T22:16:24.295Z,101047.13
2023-03-21T22:19:27.775Z,101046.66
2023-03-21T22:22:29.829Z,101053.25
2023-03-21T22:25:35.516Z,101050.25
2023-03-21T22:28:40.515Z,101050.38
2023-03-21T22:31:43.481Z,101060.13
2023-03-21T22:34:45.783Z,101055.25
2023-03-21T22:37:50.687Z,101050.38
2023-03-21T22:40:59.350Z,101064.16
2023-03-21T22:44:01.697Z,101064.31
2023-03-21T22:47:04.754Z,101068.25
2023-03-21T22:50:07.671Z,101069.94
2023-03-21T22:53:09.636Z,101066.78
2023-03-21T22:56:12.606Z,101064.53
2023-03-21T22:59:14.599Z,101069.66
2023-03-21T23:02:16.604Z,101068.06
2023-03-21T23:05:19.707Z,101073.28
2023-03-21T23:08:21.644Z,101068.25
2023-03-21T23:11:23.612Z,101062.75
2023-03-21T23:14:25.715Z,101066.22
2023-03-21T23:17:27.661Z,101061.34
2023-03-21T23:20:29.771Z,101058.34
2023-03-21T23:23:36.757Z,101055.53
2023-03-21T23:26:38.687Z,101048.81
2023-03-21T23:29:40.542Z,101050.13
2023-03-21T23:32:42.830Z,101048.53
2023-03-21T23:35:46.197Z,101052.47
2023-03-21T23:38:48.541Z,101049.47
2023-03-21T23:41:50.483Z,101051.31
2023-03-21T23:44:52.465Z,101056.94
2023-03-21T23:47:54.454Z,101049.00
2023-03-21T23:50:56.614Z,101054.13
2023-03-21T23:53:58.813Z,101040.41
2023-03-21T23:57:00.876Z,101047.00
